createdAt,value
2023-05-12T11:39:14.294Z,23.05
2023-05-12T11:41:42.005Z,23.26
2023-05-12T11:44:18.198Z,23.37
2023-05-12T11:47:17.826Z,23.65
2023-05-12T11:49:55.439Z,23.93
2023-05-12T11:52:24.888Z,24.11
2023-05-12T11:55:00.609Z,24.37
2023-05-12T11:57:30.401Z,24.58
2023-05-12T12:00:04.498Z,24.80
2023-05-12T12:02:36.720Z,25.10
2023-05-12T12:05:07.825Z,25.15
2023-05-12T12:07:37.400Z,25.12
2023-05-12T12:10:16.305Z,25.21
2023-05-12T12:12:45.623Z,25.24
2023-05-12T12:15:13.348Z,25.26
2023-05-12T12:17:40.989Z,25.51
2023-05-12T12:20:09.415Z,25.60
2023-05-12T12:22:37.152Z,25.55
2023-05-12T12:25:05.980Z,25.88
2023-05-12T12:27:33.653Z,26.07
2023-05-12T12:30:01.300Z,26.19
2023-05-12T12:32:29.063Z,26.28
2023-05-12T12:34:59.901Z,26.43
2023-05-12T12:37:27.526Z,26.63
2023-05-12T12:39:55.795Z,26.83
2023-05-12T12:42:23.534Z,26.95
2023-05-12T12:44:51.571Z,26.98
2023-05-12T12:47:19.303Z,26.77
2023-05-12T12:49:47.054Z,26.74
2023-05-12T12:52:14.637Z,26.67
2023-05-12T12:54:42.248Z,26.81
2023-05-12T12:57:10.689Z,26.95
2023-05-12T12:59:38.296Z,27.06
2023-05-12T13:02:06.013Z,27.15
2023-05-12T13:04:33.710Z,27.35
2023-05-12T13:07:01.324Z,27.57
2023-05-12T13:09:29.071Z,27.52
2023-05-12T13:11:58.034Z,27.53
2023-05-12T13:14:26.080Z,27.64
2023-05-12T13:16:53.815Z,27.46
2023-05-12T13:19:21.914Z,27.59
2023-05-12T13:21:49.610Z,27.69
2023-05-12T13:24:17.225Z,27.77
2023-05-12T13:26:44.828Z,27.88
2023-05-12T13:29:12.692Z,28.05
2023-05-12T13:31:41.268Z,28.07
2023-05-12T13:34:08.920Z,28.13
2023-05-12T13:36:36.557Z,28.22
2023-05-12T13:39:04.343Z,28.30
2023-05-12T13:41:32.074Z,28.46
2023-05-12T13:43:59.659Z,28.52
2023-05-12T13:46:27.386Z,28.63
2023-05-12T13:48:55.128Z,28.80
2023-05-12T13:51:23.151Z,28.60
2023-05-12T13:53:50.729Z,28.60
2023-05-12T13:56:18.998Z,28.43
2023-05-12T13:58:47.069Z,28.33
2023-05-12T14:01:15.026Z,28.08
2023-05-12T14:03:42.780Z,27.80
2023-05-12T14:06:11.995Z,27.87
2023-05-12T14:08:41.386Z,27.94
2023-05-12T14:11:09.981Z,27.97
2023-05-12T14:13:37.598Z,27.89
2023-05-12T14:16:05.764Z,27.97
2023-05-12T14:18:33.517Z,28.12
2023-05-12T14:21:01.594Z,27.98
2023-05-12T14:23:29.361Z,27.53
2023-05-12T14:25:57.054Z,27.40
2023-05-12T14:28:24.701Z,27.71
2023-05-12T14:30:53.529Z,27.89
2023-05-12T14:33:21.500Z,28.12
2023-05-12T14:35:59.375Z,28.48
2023-05-12T14:38:34.046Z,28.68
2023-05-12T14:41:01.645Z,28.77
2023-05-12T14:43:29.308Z,28.62
2023-05-12T14:45:57.465Z,28.64
2023-05-12T14:48:27.839Z,28.76
2023-05-12T14:50:56.674Z,28.84
2023-05-12T14:53:24.442Z,28.83
2023-05-12T14:55:52.523Z,28.82
2023-05-12T14:58:24.139Z,28.53
2023-05-12T15:00:52.156Z,28.42
2023-05-12T15:03:21.289Z,28.41
2023-05-12T15:06:05.003Z,28.61
2023-05-12T15:08:33.911Z,28.51
2023-05-12T15:11:01.660Z,28.00
2023-05-12T15:13:29.451Z,27.69
2023-05-12T15:15:57.237Z,27.47
2023-05-12T15:18:25.061Z,27.33
2023-05-12T15:20:52.720Z,27.03
2023-05-12T15:23:20.303Z,26.62
2023-05-12T15:25:47.976Z,26.18
2023-05-12T15:28:15.620Z,25.61
2023-05-12T15:30:43.294Z,25.19
2023-05-12T15:33:11.057Z,25.04
2023-05-12T15:35:39.632Z,24.88
2023-05-12T15:38:07.219Z,24.72
2023-05-12T15:40:34.870Z,24.63
2023-05-12T15:43:02.795Z,24.57
2023-05-12T15:45:31.437Z,24.50
2023-05-12T15:47:59.151Z,24.39
2023-05-12T15:50:26.866Z,24.26
2023-05-12T15:52:54.488Z,24.23
2023-05-12T15:55:22.490Z,24.27
2023-05-12T15:57:50.845Z,24.22
2023-05-12T16:00:19.384Z,24.14
2023-05-12T16:02:47.073Z,24.02
2023-05-12T16:05:14.833Z,23.91
2023-05-12T16:07:42.535Z,23.88
2023-05-12T16:10:10.377Z,23.88
2023-05-12T16:12:38.075Z,23.84
2023-05-12T16:15:07.056Z,23.67
2023-05-12T16:17:34.687Z,23.58
2023-05-12T16:20:02.316Z,23.49
2023-05-12T16:22:29.936Z,23.44
2023-05-12T16:24:58.668Z,23.46
2023-05-12T16:27:26.776Z,23.36
2023-05-12T16:29:55.350Z,23.08
2023-05-12T16:32:23.249Z,22.90
2023-05-12T16:34:50.924Z,22.87
2023-05-12T16:37:18.567Z,23.01
2023-05-12T16:39:46.178Z,23.07
2023-05-12T16:42:13.862Z,23.37
2023-05-12T16:44:41.485Z,23.66
2023-05-12T16:47:09.073Z,24.09
2023-05-12T16:49:36.724Z,24.32
2023-05-12T16:52:04.524Z,24.08
2023-05-12T16:54:34.994Z,23.90
2023-05-12T16:57:03.113Z,23.82
2023-05-12T16:59:32.225Z,23.63
2023-05-12T17:02:00.205Z,23.39
2023-05-12T17:04:28.208Z,23.20
2023-05-12T17:06:55.857Z,23.09
2023-05-12T17:09:23.635Z,23.11
2023-05-12T17:11:51.207Z,23.30
2023-05-12T17:14:19.393Z,23.25
2023-05-12T17:16:47.343Z,23.12
2023-05-12T17:19:15.847Z,23.11
2023-05-12T17:21:43.459Z,23.60
2023-05-12T17:24:11.113Z,24.07
2023-05-12T17:26:38.711Z,24.20
2023-05-12T17:29:06.337Z,24.53
2023-05-12T17:31:33.986Z,25.06
2023-05-12T17:34:01.649Z,25.54
2023-05-12T17:36:29.457Z,25.80
2023-05-12T17:38:57.082Z,25.96
2023-05-12T17:41:26.370Z,26.10
2023-05-12T17:43:54.749Z,26.28
2023-05-12T17:46:22.992Z,26.42
2023-05-12T17:48:51.687Z,26.53
2023-05-12T17:51:19.303Z,26.58
2023-05-12T17:53:47.227Z,26.51
2023-05-12T17:56:14.855Z,26.46
2023-05-12T17:58:42.630Z,26.50
2023-05-12T18:01:10.277Z,26.42
2023-05-12T18:03:38.123Z,26.12
2023-05-12T18:06:06.073Z,25.84
2023-05-12T18:08:33.734Z,25.64
2023-05-12T18:11:01.428Z,25.28
2023-05-12T18:13:29.056Z,25.00
2023-05-12T18:15:56.847Z,24.68
2023-05-12T18:18:25.966Z,24.32
2023-05-12T18:20:54.063Z,23.97
2023-05-12T18:23:21.669Z,23.65
2023-05-12T18:25:49.322Z,23.33
2023-05-12T18:28:17.044Z,22.95
2023-05-12T18:30:44.818Z,22.63
2023-05-12T18:33:12.744Z,22.12
2023-05-12T18:35:40.645Z,21.59
2023-05-12T18:38:08.336Z,21.19
2023-05-12T18:40:36.106Z,21.05
2023-05-12T18:43:03.774Z,20.93
2023-05-12T18:45:31.436Z,20.78
2023-05-12T18:47:59.110Z,20.59
2023-05-12T18:50:26.856Z,20.28
2023-05-12T18:52:54.566Z,20.04
2023-05-12T18:55:22.353Z,19.95
2023-05-12T18:57:50.192Z,19.85
2023-05-12T19:00:18.243Z,19.70
2023-05-12T19:02:47.518Z,19.52
2023-05-12T19:05:15.187Z,19.26
2023-05-12T19:07:42.849Z,19.11
2023-05-12T19:10:10.850Z,19.07
2023-05-12T19:12:38.447Z,18.99
2023-05-12T19:15:06.745Z,18.86
2023-05-12T19:17:34.646Z,18.77
2023-05-12T19:20:02.368Z,18.66
2023-05-12T19:22:29.968Z,18.54
2023-05-12T19:24:57.902Z,18.43
2023-05-12T19:27:27.033Z,18.34
2023-05-12T19:29:54.941Z,18.17
2023-05-12T19:32:23.246Z,18.01
2023-05-12T19:34:51.414Z,17.85
2023-05-12T19:37:19.491Z,17.73
2023-05-12T19:39:47.250Z,17.58
2023-05-12T19:42:14.830Z,17.45
2023-05-12T19:44:42.437Z,17.41
2023-05-12T19:47:10.235Z,17.34
2023-05-12T19:49:38.490Z,17.25
2023-05-12T19:52:06.383Z,17.26
2023-05-12T19:54:34.012Z,17.30
2023-05-12T19:57:02.043Z,17.28
2023-05-12T19:59:29.703Z,17.23
2023-05-12T20:01:57.307Z,17.22
2023-05-12T20:04:25.782Z,17.20
2023-05-12T20:06:54.515Z,17.11
2023-05-12T20:09:24.644Z,16.90
2023-05-12T20:11:52.782Z,16.67
2023-05-12T20:14:20.390Z,16.35
2023-05-12T20:16:48.293Z,16.01
2023-05-12T20:19:16.893Z,15.80
2023-05-12T20:21:44.575Z,15.72
2023-05-12T20:24:12.326Z,15.75
2023-05-12T20:26:40.605Z,15.81
2023-05-12T20:29:08.212Z,15.81
2023-05-12T20:31:35.902Z,15.74
2023-05-12T20:34:03.581Z,15.64
2023-05-12T20:36:31.157Z,15.54
2023-05-12T20:38:58.755Z,15.42
2023-05-12T20:41:27.064Z,15.29
2023-05-12T20:43:54.624Z,15.14
2023-05-12T20:46:22.490Z,15.01
2023-05-12T20:48:50.181Z,14.80
2023-05-12T20:51:17.847Z,14.57
2023-05-12T20:53:45.523Z,14.38
2023-05-12T20:56:13.267Z,14.27
2023-05-12T20:58:41.512Z,14.24
2023-05-12T21:01:09.105Z,14.24
2023-05-12T21:03:37.299Z,14.24
2023-05-12T21:06:05.756Z,14.24
2023-05-12T21:08:33.443Z,14.27
2023-05-12T21:11:01.230Z,14.27
2023-05-12T21:13:28.878Z,14.21
2023-05-12T21:15:56.490Z,14.14
2023-05-12T21:18:24.139Z,14.09
2023-05-12T21:20:51.767Z,14.06
2023-05-12T21:23:19.348Z,14.05
2023-05-12T21:25:48.888Z,14.05
2023-05-12T21:28:16.498Z,14.04
2023-05-12T21:30:44.089Z,14.05
2023-05-12T21:33:11.718Z,14.09
2023-05-12T21:35:39.374Z,14.11
2023-05-12T21:38:08.401Z,14.14
2023-05-12T21:40:37.692Z,14.14
2023-05-12T21:43:05.380Z,14.09
2023-05-12T21:45:32.991Z,14.05
2023-05-12T21:48:00.652Z,13.99
2023-05-12T21:50:28.411Z,13.99
2023-05-12T21:52:56.065Z,13.95
2023-05-12T21:55:23.619Z,13.90
2023-05-12T21:57:51.198Z,13.86
2023-05-12T22:00:20.295Z,13.84
2023-05-12T22:02:48.239Z,13.80
2023-05-12T22:05:15.998Z,13.73
2023-05-12T22:07:43.946Z,13.67
2023-05-12T22:10:11.812Z,13.60
2023-05-12T22:12:40.169Z,13.58
2023-05-12T22:15:08.083Z,13.53
2023-05-12T22:17:35.727Z,13.44
2023-05-12T22:20:04.098Z,13.33
2023-05-12T22:22:31.753Z,13.23
2023-05-12T22:24:59.384Z,13.18
2023-05-12T22:27:27.162Z,13.20
2023-05-12T22:29:56.691Z,13.26
2023-05-12T22:32:24.358Z,13.28
2023-05-12T22:34:53.427Z,13.35
2023-05-12T22:37:22.154Z,13.39
2023-05-12T22:39:49.862Z,13.41
2023-05-12T22:42:17.420Z,13.43
2023-05-12T22:44:45.005Z,13.43
2023-05-12T22:47:12.912Z,13.43
2023-05-12T22:49:40.947Z,13.43
2023-05-12T22:52:08.605Z,13.42
2023-05-12T22:54:36.187Z,13.41
2023-05-12T22:57:03.939Z,13.41
2023-05-12T22:59:31.523Z,13.40
2023-05-12T23:01:59.094Z,13.39
2023-05-12T23:04:26.887Z,13.36
2023-05-12T23:06:54.767Z,13.31
2023-05-12T23:09:22.368Z,13.24
2023-05-12T23:11:49.960Z,13.22
2023-05-12T23:14:17.562Z,13.19
2023-05-12T23:16:45.213Z,13.16
2023-05-12T23:19:13.073Z,13.13
2023-05-12T23:21:40.783Z,13.08
2023-05-12T23:24:08.942Z,13.02
2023-05-12T23:26:37.247Z,12.97
2023-05-12T23:29:04.841Z,12.95
2023-05-12T23:31:32.526Z,12.91
2023-05-12T23:34:00.182Z,12.82
2023-05-12T23:36:27.747Z,12.78
2023-05-12T23:38:55.373Z,12.68
2023-05-12T23:41:23.006Z,12.66
2023-05-12T23:43:50.632Z,12.61
2023-05-12T23:46:18.205Z,12.56
2023-05-12T23:48:45.789Z,12.47
2023-05-12T23:51:13.362Z,12.40
2023-05-12T23:53:41.132Z,12.35
2023-05-12T23:56:08.727Z,12.32
2023-05-12T23:58:36.306Z,12.30
